EDDP Airport Information

Runway Information
Runway 08L Length 11811 ft width 148 ft
Elevation 418 ft Threshold 0 ft Heading 86
Runway 26R Length 11811 ft Width 148 ft
Elevation 448 ft Threshold 0 ft Heading 266
Runway 08R Length 11811 ft width 198 ft
Elevation 0 ft Threshold 0 ft Heading 86
Runway 26L Length 11811 ft Width 198 ft
Elevation 0 ft Threshold 0 ft Heading 266
Airport Frequencies
Type APP Name MUNCHEN RA Frequency 124.175 MHZ
Type ATIS Name ATIS Frequency 123.95 MHZ
Type GND Name GND Frequency 121.8 MHZ
Type INFO Name MUNCHEN IN Frequency 125.8 MHZ
Type TWR Name TWR Frequency 121.1 MHZ
Airport Navaids
Type DME Name Leipzig South Frequency 112150 KHZ
Type VOR-DME Name Leipzig Frequency 115850 KHZ
Type DME Name Leipzig North Frequency 113500 KHZ
Type NDB Name Leipzig Frequency 357 KHZ
Type NDB Name Leipzig Frequency 434 KHZ
Type NDB Name Leipzig Frequency 340 KHZ
Airport Weather Information & NOTAM
ADDS - METARS form results

(0329 UTC 20 January 2019)
Data provider http://aviationweather.gov/metar/data/
 
METAR text: EDDP 200320Z 12005KT CAVOK M07/M09 Q1016 NOSIG
Conditions at: EDDP (LEIPZIG/SCHKEUDI, DE) observed 0320 UTC 20 January 2019
Temperature: -7.0°C (19°F)
Dewpoint: -9.0°C (16°F) [RH = 86%]
Pressure (altimeter): 30.00 inches Hg (1016.0 mb)
Winds: from the ESE (120 degrees) at 6 MPH (5 knots; 2.6 m/s)
Visibility: 6 or more miles (10+ km)
Ceiling: ceiling and visibility are OK
Clouds: unknown
Weather: no significant weather observed at this time

METAR text: EDDP 200250Z 13005KT CAVOK M05/M08 Q1016 NOSIG
Conditions at: EDDP (LEIPZIG/SCHKEUDI, DE) observed 0250 UTC 20 January 2019
Temperature: -5.0°C (23°F)
Dewpoint: -8.0°C (18°F) [RH = 79%]
Pressure (altimeter): 30.00 inches Hg (1016.0 mb)
Winds: from the SE (130 degrees) at 6 MPH (5 knots; 2.6 m/s)
Visibility: 6 or more miles (10+ km)
Ceiling: ceiling and visibility are OK
Clouds: unknown
Weather: no significant weather observed at this time

Forecast for: EDDP (LEIPZIG/SCHKEUDI, DE)
Text: TAF EDDP 192300Z 2000/2024 11005KT CAVOK
Forecast period: 0000 to 1300 UTC 20 January 2019
Forecast type: FROM: standard forecast or significant change
Winds: from the ESE (110 degrees) at 6 MPH (5 knots; 2.6 m/s)
Visibility: 6 or more miles 10+ km)
Ceiling: unknown
Clouds: missing
Weather: NSW  (no significant weather)
Text: BECMG 2013/2016 VRB03KT
Forecast period: 1300 UTC 20 January 2019 to 0000 UTC 21 January 2019
Forecast type: BECOMING: Conditions expected to become as follows by 1600 UTC 20 January 2019
Winds: variable direction winds at 3 MPH (3 knots; 1.5 m/s)
Visibility: 6 or more miles 10+ km)
Ceiling: unknown
Clouds: missing
Weather: NSW  (no significant weather)